createdAt,value
2017-10-13T00:02:08.656Z,3.20
2017-10-13T00:04:35.690Z,4.10
2017-10-13T00:07:02.714Z,4.13
2017-10-13T00:09:28.963Z,4.40
2017-10-13T00:11:55.235Z,5.30
2017-10-13T00:14:21.530Z,3.63
2017-10-13T00:16:47.828Z,4.20
2017-10-13T00:19:14.118Z,3.80
2017-10-13T00:21:40.406Z,4.33
2017-10-13T00:24:07.419Z,4.33
2017-10-13T00:26:34.518Z,4.27
2017-10-13T00:29:00.818Z,3.60
2017-10-13T00:31:27.115Z,3.40
2017-10-13T00:33:53.406Z,4.20
2017-10-13T00:36:19.687Z,3.80
2017-10-13T00:38:45.986Z,4.57
2017-10-13T00:41:12.286Z,4.30
2017-10-13T00:43:38.606Z,3.83
2017-10-13T00:46:04.909Z,4.90
2017-10-13T00:48:31.207Z,4.40
2017-10-13T00:50:57.522Z,4.20
2017-10-13T00:53:23.799Z,3.63
2017-10-13T00:55:50.843Z,5.00
2017-10-13T00:58:17.162Z,4.00
2017-10-13T01:00:43.434Z,3.93
2017-10-13T01:03:09.709Z,3.90
2017-10-13T01:05:36.750Z,3.97
2017-10-13T01:08:03.019Z,4.47
2017-10-13T01:10:30.060Z,4.60
2017-10-13T01:12:56.363Z,4.57
2017-10-13T01:15:22.650Z,4.97
2017-10-13T01:17:48.947Z,4.07
2017-10-13T01:20:15.234Z,4.67
2017-10-13T01:22:42.287Z,3.87
2017-10-13T01:25:08.658Z,4.27
2017-10-13T01:27:34.965Z,5.00
2017-10-13T01:30:01.250Z,4.30
2017-10-13T01:32:27.571Z,4.00
2017-10-13T01:34:53.882Z,3.40
2017-10-13T01:37:20.188Z,3.70
2017-10-13T01:39:46.558Z,3.90
2017-10-13T01:42:12.838Z,4.40
2017-10-13T01:44:39.119Z,4.23
2017-10-13T01:47:05.482Z,3.80
2017-10-13T01:49:31.790Z,3.57
2017-10-13T01:51:58.082Z,4.30
2017-10-13T01:54:24.410Z,4.57
2017-10-13T01:56:51.474Z,4.20
2017-10-13T01:59:17.759Z,3.43
2017-10-13T02:01:44.087Z,4.03
2017-10-13T02:04:10.365Z,3.60
2017-10-13T02:06:36.640Z,4.47
2017-10-13T02:09:03.030Z,3.40
2017-10-13T02:11:29.318Z,3.73
2017-10-13T02:13:55.601Z,4.30
2017-10-13T02:16:22.007Z,4.17
2017-10-13T02:18:49.050Z,4.30
2017-10-13T02:21:15.394Z,6.20
2017-10-13T02:23:41.695Z,4.53
2017-10-13T02:26:07.960Z,4.53
2017-10-13T02:28:34.266Z,4.50
2017-10-13T02:31:01.290Z,4.57
2017-10-13T02:33:27.579Z,4.97
2017-10-13T02:35:53.856Z,4.37
2017-10-13T02:38:20.154Z,5.10
2017-10-13T02:40:46.450Z,4.40
2017-10-13T02:43:12.742Z,4.57
2017-10-13T02:45:39.094Z,4.57
2017-10-13T02:48:06.402Z,4.97
2017-10-13T02:50:32.698Z,4.90
2017-10-13T02:52:59.030Z,4.90
2017-10-13T02:55:26.078Z,4.53
2017-10-13T02:57:52.350Z,4.83
2017-10-13T03:00:18.646Z,5.43
2017-10-13T03:02:44.911Z,4.80
2017-10-13T03:05:11.178Z,4.60
2017-10-13T03:07:37.483Z,4.63
2017-10-13T03:10:03.743Z,4.80
2017-10-13T03:12:30.005Z,4.73
2017-10-13T03:14:56.286Z,4.47
2017-10-13T03:17:22.558Z,5.47
2017-10-13T03:19:48.862Z,4.40
2017-10-13T03:22:15.182Z,4.47
2017-10-13T03:24:41.433Z,5.17
2017-10-13T03:27:07.715Z,4.80
2017-10-13T03:29:34.014Z,5.37
2017-10-13T03:32:00.295Z,5.00
2017-10-13T03:34:26.577Z,4.73
2017-10-13T03:36:52.858Z,4.77
2017-10-13T03:39:19.107Z,6.20
2017-10-13T03:41:45.418Z,8.00
2017-10-13T03:44:11.734Z,9.82
2017-10-13T03:46:38.046Z,10.00
2017-10-13T03:49:04.362Z,8.17
2017-10-13T03:51:30.670Z,9.55
2017-10-13T03:53:56.955Z,10.53
2017-10-13T03:56:23.278Z,10.20
2017-10-13T03:58:49.587Z,9.40
2017-10-13T04:01:15.874Z,10.97
2017-10-13T04:03:42.166Z,11.20
2017-10-13T04:06:09.202Z,10.00
2017-10-13T04:08:35.458Z,9.10
2017-10-13T04:11:01.763Z,10.10
2017-10-13T04:13:28.098Z,11.87
2017-10-13T04:15:54.396Z,9.87
2017-10-13T04:18:20.710Z,11.53
2017-10-13T04:20:47.002Z,8.57
2017-10-13T04:23:13.283Z,9.43
2017-10-13T04:25:39.566Z,10.10
2017-10-13T04:28:05.842Z,8.10
2017-10-13T04:30:32.125Z,8.17
2017-10-13T04:32:58.410Z,8.00
2017-10-13T04:35:24.734Z,6.37
2017-10-13T04:37:51.019Z,6.80
2017-10-13T04:40:17.333Z,6.80
2017-10-13T04:42:43.647Z,6.97
2017-10-13T04:45:09.923Z,6.33
2017-10-13T04:47:36.237Z,6.53
2017-10-13T04:50:03.267Z,5.93
2017-10-13T04:52:29.532Z,7.10
2017-10-13T04:54:55.828Z,6.40
2017-10-13T04:57:22.093Z,7.05
2017-10-13T04:59:48.382Z,6.03
2017-10-13T05:02:14.694Z,6.25
2017-10-13T05:04:40.965Z,5.43
2017-10-13T05:07:07.250Z,5.47
2017-10-13T05:09:33.566Z,5.22
2017-10-13T05:11:59.850Z,5.72
2017-10-13T05:14:26.147Z,5.87
2017-10-13T05:16:52.578Z,5.87
2017-10-13T05:19:18.863Z,6.10
2017-10-13T05:21:45.182Z,6.20
2017-10-13T05:24:12.205Z,6.78
2017-10-13T05:26:38.518Z,6.10
2017-10-13T05:29:05.530Z,7.70
2017-10-13T05:31:31.814Z,6.72
2017-10-13T05:33:58.148Z,7.43
2017-10-13T05:36:24.446Z,7.07
2017-10-13T05:38:50.755Z,8.10
2017-10-13T05:41:17.070Z,7.87
2017-10-13T05:43:43.378Z,8.18
2017-10-13T05:46:09.638Z,6.62
2017-10-13T05:48:36.638Z,7.22
2017-10-13T05:51:02.929Z,6.78
2017-10-13T05:53:29.219Z,7.40
2017-10-13T05:55:56.639Z,6.70
2017-10-13T05:58:23.774Z,7.18
2017-10-13T06:00:50.836Z,7.78
2017-10-13T06:03:17.146Z,7.45
2017-10-13T06:05:43.455Z,8.18
2017-10-13T06:08:09.806Z,7.80
2017-10-13T06:10:36.128Z,7.20
2017-10-13T06:13:02.414Z,8.15
2017-10-13T06:15:28.693Z,6.80
2017-10-13T06:17:54.973Z,7.70
2017-10-13T06:20:21.270Z,8.85
2017-10-13T06:22:47.534Z,7.60
2017-10-13T06:25:13.830Z,7.60
2017-10-13T06:27:40.154Z,7.07
2017-10-13T06:30:06.449Z,7.93
2017-10-13T06:32:32.766Z,7.10
2017-10-13T06:34:59.062Z,6.78
2017-10-13T06:37:25.382Z,6.80
2017-10-13T06:39:51.726Z,7.25
2017-10-13T06:42:18.033Z,7.37
2017-10-13T06:44:44.322Z,8.52
2017-10-13T06:47:11.398Z,7.95
2017-10-13T06:49:38.435Z,7.20
2017-10-13T06:52:05.478Z,8.13
2017-10-13T06:54:31.785Z,8.02
2017-10-13T06:56:58.134Z,8.55
2017-10-13T06:59:24.510Z,8.47
2017-10-13T07:01:51.562Z,9.05
2017-10-13T07:04:18.954Z,9.05
2017-10-13T07:06:45.287Z,7.12
2017-10-13T07:09:11.594Z,8.83
2017-10-13T07:11:37.939Z,8.00
2017-10-13T07:14:04.270Z,8.93
2017-10-13T07:16:30.573Z,12.40
2017-10-13T07:18:56.901Z,11.40
2017-10-13T07:21:23.178Z,13.77
2017-10-13T07:23:50.242Z,12.63
2017-10-13T07:26:16.548Z,13.57
2017-10-13T07:28:42.842Z,12.77
2017-10-13T07:31:09.150Z,16.20
2017-10-13T07:33:36.170Z,14.73
2017-10-13T07:36:02.442Z,15.93
2017-10-13T07:38:28.737Z,15.17
2017-10-13T07:40:55.066Z,14.43
2017-10-13T07:43:21.374Z,13.80
2017-10-13T07:45:47.658Z,13.40
2017-10-13T07:48:13.974Z,14.80
2017-10-13T07:50:40.250Z,14.00
2017-10-13T07:53:06.523Z,13.20
2017-10-13T07:55:32.814Z,14.10
2017-10-13T07:57:59.086Z,13.70
2017-10-13T08:00:25.382Z,13.67
2017-10-13T08:02:51.652Z,15.03
2017-10-13T08:05:17.934Z,14.27
2017-10-13T08:07:44.991Z,14.20
2017-10-13T08:10:11.238Z,13.70
2017-10-13T08:12:37.530Z,15.57
2017-10-13T08:15:03.811Z,14.80
2017-10-13T08:17:30.118Z,14.70
2017-10-13T08:19:58.155Z,14.37
2017-10-13T08:22:24.458Z,14.73
2017-10-13T08:24:50.777Z,15.20
2017-10-13T08:27:17.115Z,15.53
2017-10-13T08:29:43.421Z,17.37
2017-10-13T08:32:09.742Z,16.70
2017-10-13T08:34:36.053Z,16.43
2017-10-13T08:37:02.362Z,16.90
2017-10-13T08:39:29.398Z,15.83
2017-10-13T08:41:56.431Z,15.60
2017-10-13T08:44:24.565Z,15.03
2017-10-13T08:46:50.819Z,15.33
2017-10-13T08:49:17.122Z,15.73
2017-10-13T08:51:43.427Z,15.90
2017-10-13T08:54:09.742Z,13.77
2017-10-13T08:56:36.003Z,13.90
2017-10-13T08:59:02.327Z,14.50
2017-10-13T09:01:28.657Z,14.93
2017-10-13T09:03:54.959Z,13.33
2017-10-13T09:06:21.298Z,12.60
2017-10-13T09:08:47.622Z,13.43
2017-10-13T09:11:13.950Z,13.43
2017-10-13T09:13:40.222Z,13.40
2017-10-13T09:16:06.490Z,12.73
2017-10-13T09:18:32.818Z,13.63
2017-10-13T09:20:59.116Z,12.90
2017-10-13T09:23:26.153Z,12.23
2017-10-13T09:25:52.494Z,12.43
2017-10-13T09:28:18.778Z,10.50
2017-10-13T09:30:45.102Z,13.83
2017-10-13T09:33:11.389Z,11.93
2017-10-13T09:35:38.439Z,13.17
2017-10-13T09:38:05.464Z,12.47
2017-10-13T09:40:31.798Z,12.97
2017-10-13T09:42:58.092Z,11.93
2017-10-13T09:45:25.202Z,12.13
2017-10-13T09:47:52.264Z,11.80
2017-10-13T09:50:18.610Z,12.23
2017-10-13T09:52:44.915Z,11.23
2017-10-13T09:55:11.218Z,11.67
2017-10-13T09:57:37.492Z,12.90
2017-10-13T10:00:04.574Z,12.80
2017-10-13T10:02:30.898Z,10.40
2017-10-13T10:04:57.190Z,11.43
2017-10-13T10:07:23.507Z,10.97
2017-10-13T10:09:49.783Z,10.97
2017-10-13T10:12:16.074Z,9.13
2017-10-13T10:14:42.359Z,10.00
2017-10-13T10:17:08.646Z,12.13
2017-10-13T10:19:35.654Z,10.93
2017-10-13T10:22:01.943Z,11.60
2017-10-13T10:24:28.289Z,9.97
2017-10-13T10:26:54.559Z,9.03
2017-10-13T10:29:20.858Z,8.70
2017-10-13T10:31:47.124Z,8.50
2017-10-13T10:34:13.441Z,7.97
2017-10-13T10:36:40.494Z,7.93
2017-10-13T10:39:07.502Z,7.77
2017-10-13T10:41:33.790Z,8.40
2017-10-13T10:44:00.039Z,7.63
2017-10-13T10:46:26.301Z,8.20
2017-10-13T10:48:52.586Z,7.17
2017-10-13T10:51:19.622Z,7.20
2017-10-13T10:53:45.914Z,7.20
2017-10-13T10:56:12.277Z,7.10
2017-10-13T10:58:38.531Z,7.40
2017-10-13T11:01:04.826Z,8.10
2017-10-13T11:03:31.158Z,7.70
2017-10-13T11:05:57.418Z,6.27
2017-10-13T11:08:23.694Z,7.47
2017-10-13T11:10:49.989Z,5.87
2017-10-13T11:13:16.291Z,6.77
2017-10-13T11:15:42.582Z,6.90
2017-10-13T11:18:08.922Z,6.53
2017-10-13T11:20:35.234Z,7.07
2017-10-13T11:23:02.256Z,5.60
2017-10-13T11:25:28.594Z,6.70
2017-10-13T11:27:54.847Z,5.57
2017-10-13T11:30:21.189Z,6.30
2017-10-13T11:32:49.558Z,5.77
2017-10-13T11:35:15.814Z,6.10
2017-10-13T11:37:43.195Z,5.30
2017-10-13T11:40:09.477Z,6.17
2017-10-13T11:42:36.498Z,5.60
2017-10-13T11:45:03.530Z,5.80
2017-10-13T11:47:29.824Z,5.30
2017-10-13T11:49:56.955Z,5.30
2017-10-13T11:52:23.278Z,5.90
2017-10-13T11:54:49.548Z,5.40
2017-10-13T11:57:15.802Z,5.43
2017-10-13T11:59:42.107Z,5.90
2017-10-13T12:02:08.399Z,5.13
2017-10-13T12:04:34.675Z,5.07
2017-10-13T12:07:00.975Z,5.80
2017-10-13T12:09:27.239Z,6.83
2017-10-13T12:11:53.478Z,5.10
2017-10-13T12:14:19.791Z,5.30
2017-10-13T12:16:46.058Z,6.40
2017-10-13T12:19:12.342Z,3.90
2017-10-13T12:21:39.392Z,4.93
2017-10-13T12:24:05.662Z,5.07
2017-10-13T12:26:32.074Z,4.80
2017-10-13T12:28:58.359Z,4.83
2017-10-13T12:31:24.633Z,4.40
2017-10-13T12:33:51.650Z,4.77
2017-10-13T12:36:17.942Z,4.27
2017-10-13T12:38:44.212Z,5.47
2017-10-13T12:41:10.471Z,4.73
2017-10-13T12:43:36.762Z,5.33
2017-10-13T12:46:03.030Z,5.73
2017-10-13T12:48:30.071Z,4.77
2017-10-13T12:50:56.318Z,4.90
2017-10-13T12:53:22.626Z,5.00
2017-10-13T12:55:48.947Z,5.33
2017-10-13T12:58:15.232Z,4.90
2017-10-13T13:00:41.510Z,5.20
2017-10-13T13:03:07.792Z,4.73
2017-10-13T13:05:34.073Z,4.47
2017-10-13T13:08:01.063Z,5.70
2017-10-13T13:10:27.351Z,5.33
2017-10-13T13:12:53.719Z,4.80
2017-10-13T13:15:19.995Z,5.80
2017-10-13T13:17:46.277Z,4.87
2017-10-13T13:20:12.538Z,5.00
2017-10-13T13:22:38.819Z,5.10
2017-10-13T13:25:05.115Z,4.50
2017-10-13T13:27:31.368Z,5.03
2017-10-13T13:29:57.675Z,4.53
2017-10-13T13:32:23.939Z,4.53
2017-10-13T13:34:50.922Z,4.50
2017-10-13T13:37:17.231Z,4.40
2017-10-13T13:39:43.494Z,4.90
2017-10-13T13:42:09.814Z,4.90
2017-10-13T13:44:36.869Z,3.87
2017-10-13T13:47:03.154Z,4.60
2017-10-13T13:49:30.203Z,3.83
2017-10-13T13:51:56.476Z,3.87
2017-10-13T13:54:22.746Z,3.57
2017-10-13T13:56:49.039Z,3.97
2017-10-13T13:59:15.322Z,4.50
2017-10-13T14:01:41.601Z,4.40
2017-10-13T14:04:07.886Z,4.00
2017-10-13T14:06:35.241Z,3.40
2017-10-13T14:09:01.518Z,4.23
2017-10-13T14:11:27.779Z,5.20
2017-10-13T14:13:54.072Z,3.37
2017-10-13T14:16:20.406Z,4.77
2017-10-13T14:18:46.666Z,3.43
2017-10-13T14:21:12.954Z,4.30
2017-10-13T14:23:39.238Z,3.60
2017-10-13T14:26:05.510Z,4.90
2017-10-13T14:28:31.774Z,3.93
2017-10-13T14:30:58.054Z,5.23
2017-10-13T14:33:24.359Z,5.43
2017-10-13T14:35:50.658Z,5.03
2017-10-13T14:38:16.921Z,5.63
2017-10-13T14:40:43.238Z,5.03
2017-10-13T14:43:09.507Z,6.10
2017-10-13T14:45:35.803Z,6.30
2017-10-13T14:48:02.077Z,5.73
2017-10-13T14:50:28.410Z,5.50
2017-10-13T14:52:54.689Z,6.10
2017-10-13T14:55:20.979Z,5.60
2017-10-13T14:57:47.328Z,5.43
2017-10-13T15:00:13.610Z,5.40
2017-10-13T15:02:39.878Z,6.50
2017-10-13T15:05:06.195Z,5.77
2017-10-13T15:07:32.475Z,6.33
2017-10-13T15:09:58.792Z,6.50
2017-10-13T15:12:25.081Z,6.33
2017-10-13T15:14:51.371Z,6.30
2017-10-13T15:17:17.672Z,6.23
2017-10-13T15:19:43.959Z,6.07
2017-10-13T15:22:10.243Z,6.20
2017-10-13T15:24:36.591Z,7.23
2017-10-13T15:27:08.983Z,5.53
2017-10-13T15:29:41.504Z,5.60
2017-10-13T15:32:14.023Z,6.30
2017-10-13T15:34:46.412Z,7.27
2017-10-13T15:37:12.734Z,5.40
2017-10-13T15:39:44.973Z,7.70
2017-10-13T15:42:17.391Z,6.53
2017-10-13T15:44:51.046Z,6.40
2017-10-13T15:47:23.463Z,6.67
2017-10-13T15:49:56.613Z,6.70
2017-10-13T15:52:25.807Z,6.90
2017-10-13T15:54:53.871Z,7.17
2017-10-13T15:57:20.199Z,7.63
2017-10-13T15:59:46.503Z,7.13
2017-10-13T16:02:13.520Z,7.50
2017-10-13T16:04:39.794Z,6.87
2017-10-13T16:07:06.082Z,7.40
2017-10-13T16:09:32.388Z,7.07
2017-10-13T16:11:58.675Z,7.33
2017-10-13T16:14:24.947Z,7.50
2017-10-13T16:16:51.265Z,7.37
2017-10-13T16:19:18.386Z,7.03
2017-10-13T16:21:44.714Z,7.40
2017-10-13T16:24:11.065Z,8.50
2017-10-13T16:26:38.092Z,6.53
2017-10-13T16:29:04.443Z,8.37
2017-10-13T16:31:30.963Z,9.67
2017-10-13T16:33:57.306Z,9.27
2017-10-13T16:36:23.871Z,8.27
2017-10-13T16:38:50.211Z,7.93
2017-10-13T16:41:16.762Z,7.83
2017-10-13T16:43:43.108Z,8.80
2017-10-13T16:46:09.989Z,8.37
2017-10-13T16:48:36.639Z,7.77
2017-10-13T16:51:04.908Z,6.60
2017-10-13T16:53:31.324Z,6.70
2017-10-13T16:55:57.878Z,7.37
2017-10-13T16:58:24.293Z,7.43
2017-10-13T17:00:50.825Z,8.47
2017-10-13T17:03:17.444Z,7.50
2017-10-13T17:05:45.364Z,8.00
2017-10-13T17:08:12.072Z,7.93
2017-10-13T17:10:39.439Z,7.43
2017-10-13T17:13:06.133Z,7.43
2017-10-13T17:15:32.906Z,6.47
2017-10-13T17:17:59.711Z,7.63
2017-10-13T17:20:26.526Z,6.80
2017-10-13T17:22:53.588Z,7.30
2017-10-13T17:25:21.220Z,9.43
2017-10-13T17:27:49.524Z,8.20
2017-10-13T17:30:17.313Z,7.40
2017-10-13T17:32:45.192Z,7.70
2017-10-13T17:35:13.201Z,8.00
2017-10-13T17:37:41.153Z,7.63
2017-10-13T17:40:09.065Z,7.63
2017-10-13T17:42:37.183Z,8.53
2017-10-13T17:45:05.125Z,8.70
2017-10-13T17:47:33.080Z,7.87
2017-10-13T17:50:01.151Z,7.87
2017-10-13T17:52:29.073Z,8.13
2017-10-13T17:54:56.992Z,7.70
2017-10-13T17:57:24.992Z,8.30
2017-10-13T17:59:52.994Z,10.10
2017-10-13T18:02:20.980Z,8.10
2017-10-13T18:04:49.033Z,9.07
2017-10-13T18:07:17.628Z,8.30
2017-10-13T18:09:46.036Z,10.40
2017-10-13T18:12:16.706Z,9.43
2017-10-13T18:14:44.830Z,9.23
2017-10-13T18:17:12.703Z,9.07
2017-10-13T18:19:40.944Z,9.77
2017-10-13T18:22:09.337Z,8.80
2017-10-13T18:24:37.361Z,8.70
2017-10-13T18:27:05.704Z,9.80
2017-10-13T18:29:34.395Z,9.57
2017-10-13T18:32:03.288Z,9.27
2017-10-13T18:34:31.621Z,8.33
2017-10-13T18:37:00.867Z,8.83
2017-10-13T18:39:28.843Z,9.47
2017-10-13T18:41:57.572Z,9.90
2017-10-13T18:44:25.591Z,9.20
2017-10-13T18:46:54.431Z,9.80
2017-10-13T18:49:23.512Z,11.97
2017-10-13T18:51:52.186Z,10.23
2017-10-13T18:54:21.824Z,9.10
2017-10-13T18:56:50.787Z,9.07
2017-10-13T18:59:18.839Z,10.23
2017-10-13T19:01:46.798Z,10.00
2017-10-13T19:04:14.781Z,9.90
2017-10-13T19:06:42.684Z,9.17
2017-10-13T19:09:11.569Z,9.67
2017-10-13T19:11:39.601Z,9.00
2017-10-13T19:14:08.334Z,9.70
2017-10-13T19:16:36.247Z,9.93
2017-10-13T19:19:04.330Z,10.70
2017-10-13T19:21:32.540Z,9.20
2017-10-13T19:24:01.293Z,9.03
2017-10-13T19:26:29.371Z,8.67
2017-10-13T19:28:57.304Z,9.10
2017-10-13T19:31:25.596Z,8.87
2017-10-13T19:33:53.666Z,8.13
2017-10-13T19:36:21.565Z,10.13
2017-10-13T19:38:49.701Z,9.83
2017-10-13T19:41:17.585Z,9.90
2017-10-13T19:43:46.362Z,9.20
2017-10-13T19:46:15.232Z,9.50
2017-10-13T19:48:43.455Z,9.50
2017-10-13T19:51:11.397Z,9.70
2017-10-13T19:53:39.332Z,8.50
2017-10-13T19:56:07.349Z,9.20
2017-10-13T19:58:35.392Z,8.63
2017-10-13T20:01:03.375Z,8.27
2017-10-13T20:03:32.116Z,10.07
2017-10-13T20:06:00.883Z,9.83
2017-10-13T20:08:28.834Z,10.20
2017-10-13T20:10:57.035Z,9.60
2017-10-13T20:13:24.985Z,9.47
2017-10-13T20:15:53.943Z,8.50
2017-10-13T20:18:22.851Z,9.70
2017-10-13T20:20:50.735Z,9.30
2017-10-13T20:23:18.944Z,8.00
2017-10-13T20:25:47.555Z,10.27
2017-10-13T20:28:15.593Z,8.90
2017-10-13T20:30:43.763Z,8.10
2017-10-13T20:33:11.728Z,9.50
2017-10-13T20:35:39.573Z,9.60
2017-10-13T20:38:07.673Z,8.93
2017-10-13T20:40:36.342Z,9.20
2017-10-13T20:43:04.522Z,9.37
2017-10-13T20:45:32.650Z,9.17
2017-10-13T20:48:00.620Z,8.93
2017-10-13T20:50:28.589Z,9.20
2017-10-13T20:52:58.258Z,9.60
2017-10-13T20:55:27.053Z,8.73
2017-10-13T20:57:55.035Z,8.83
2017-10-13T21:00:22.951Z,9.17
2017-10-13T21:02:50.972Z,9.70
2017-10-13T21:05:18.950Z,9.73
2017-10-13T21:07:46.943Z,9.43
2017-10-13T21:10:14.960Z,10.03
2017-10-13T21:12:42.964Z,9.27
2017-10-13T21:15:10.979Z,9.70
2017-10-13T21:17:38.958Z,10.67
2017-10-13T21:20:06.975Z,9.70
2017-10-13T21:22:35.581Z,10.07
2017-10-13T21:25:03.632Z,10.37
2017-10-13T21:27:31.680Z,10.67
2017-10-13T21:29:59.504Z,8.97
2017-10-13T21:32:27.466Z,10.47
2017-10-13T21:34:55.398Z,10.33
2017-10-13T21:37:23.212Z,10.20
2017-10-13T21:39:51.005Z,9.43
2017-10-13T21:42:20.008Z,8.83
2017-10-13T21:44:47.858Z,9.23
2017-10-13T21:47:15.666Z,9.20
2017-10-13T21:49:43.557Z,10.10
2017-10-13T21:52:11.343Z,9.47
2017-10-13T21:54:39.084Z,10.83
2017-10-13T21:57:07.006Z,10.90
2017-10-13T21:59:34.487Z,10.83
2017-10-13T22:02:01.756Z,9.67
2017-10-13T22:04:28.476Z,9.20
2017-10-13T22:06:55.036Z,9.87
2017-10-13T22:09:21.464Z,9.30
2017-10-13T22:11:48.721Z,10.30
2017-10-13T22:14:15.120Z,8.97
2017-10-13T22:16:41.545Z,10.20
2017-10-13T22:19:07.931Z,8.70
2017-10-13T22:21:34.315Z,10.80
2017-10-13T22:24:00.711Z,9.07
2017-10-13T22:26:27.103Z,9.53
2017-10-13T22:28:54.220Z,10.07
2017-10-13T22:31:20.583Z,10.60
2017-10-13T22:33:46.940Z,10.40
2017-10-13T22:36:13.327Z,10.23
2017-10-13T22:38:39.726Z,9.37
2017-10-13T22:41:06.099Z,9.33
2017-10-13T22:43:32.523Z,9.00
2017-10-13T22:45:58.915Z,10.53
2017-10-13T22:48:25.255Z,9.53
2017-10-13T22:50:52.432Z,9.00
2017-10-13T22:53:19.562Z,9.70
2017-10-13T22:55:45.977Z,9.57
2017-10-13T22:58:12.359Z,8.60
2017-10-13T23:00:38.755Z,9.23
2017-10-13T23:03:05.151Z,9.70
2017-10-13T23:05:31.571Z,10.33
2017-10-13T23:07:57.979Z,9.20
2017-10-13T23:10:25.348Z,9.17
2017-10-13T23:12:51.715Z,9.17
2017-10-13T23:15:19.186Z,8.60
2017-10-13T23:17:45.578Z,8.87
2017-10-13T23:20:11.943Z,9.37
2017-10-13T23:22:39.087Z,8.90
2017-10-13T23:25:06.257Z,9.80
2017-10-13T23:27:32.623Z,10.20
2017-10-13T23:29:59.088Z,9.60
2017-10-13T23:32:25.545Z,9.83
2017-10-13T23:34:51.984Z,8.50
2017-10-13T23:37:18.384Z,8.87
2017-10-13T23:39:44.772Z,9.53
2017-10-13T23:42:11.135Z,9.60
2017-10-13T23:44:37.535Z,9.27
2017-10-13T23:47:04.676Z,10.07
2017-10-13T23:49:31.059Z,10.00
2017-10-13T23:51:57.471Z,9.07
2017-10-13T23:54:23.882Z,9.87
2017-10-13T23:56:50.263Z,9.43
2017-10-13T23:59:16.663Z,10.37
